createdAt,value
2017-06-01T00:01:57.756Z,62.30
2017-06-01T00:04:26.125Z,63.00
2017-06-01T00:06:54.464Z,62.50
2017-06-01T00:09:22.839Z,63.00
2017-06-01T00:11:51.204Z,62.90
2017-06-01T00:14:19.549Z,63.10
2017-06-01T00:16:47.913Z,63.20
2017-06-01T00:19:16.267Z,63.00
2017-06-01T00:21:44.629Z,62.90
2017-06-01T00:24:12.973Z,63.00
2017-06-01T00:26:41.344Z,63.30
2017-06-01T00:29:09.702Z,63.40
2017-06-01T00:31:38.068Z,63.90
2017-06-01T00:34:05.648Z,63.80
2017-06-01T00:36:33.252Z,63.40
2017-06-01T00:39:01.597Z,63.40
2017-06-01T00:41:29.948Z,63.80
2017-06-01T00:43:58.293Z,64.50
2017-06-01T00:46:25.881Z,64.50
2017-06-01T00:48:54.251Z,64.60
2017-06-01T00:51:22.603Z,65.10
2017-06-01T00:53:50.970Z,64.90
2017-06-01T00:56:19.316Z,65.00
2017-06-01T00:58:47.702Z,64.90
2017-06-01T01:01:22.428Z,65.20
2017-06-01T01:03:50.793Z,65.30
2017-06-01T01:06:19.140Z,65.50
2017-06-01T01:08:47.504Z,65.60
2017-06-01T01:11:15.940Z,65.80
2017-06-01T01:13:44.292Z,65.40
2017-06-01T01:16:12.640Z,65.70
2017-06-01T01:18:41.004Z,66.40
2017-06-01T01:21:09.356Z,66.50
2017-06-01T01:23:37.716Z,66.70
2017-06-01T01:26:06.068Z,66.70
2017-06-01T01:28:34.407Z,67.10
2017-06-01T01:31:02.771Z,66.90
2017-06-01T01:33:31.147Z,66.90
2017-06-01T01:35:59.509Z,67.10
2017-06-01T01:38:27.867Z,67.10
2017-06-01T01:40:56.224Z,67.20
2017-06-01T01:43:24.574Z,67.40
2017-06-01T01:45:52.940Z,67.30
2017-06-01T01:48:21.287Z,67.10
2017-06-01T01:50:49.650Z,67.20
2017-06-01T01:53:17.997Z,67.20
2017-06-01T01:55:46.368Z,67.60
2017-06-01T01:58:14.715Z,68.60
2017-06-01T02:00:43.089Z,67.70
2017-06-01T02:03:11.444Z,68.00
2017-06-01T02:05:39.789Z,67.40
2017-06-01T02:08:08.155Z,67.30
2017-06-01T02:10:36.500Z,67.40
2017-06-01T02:13:04.867Z,67.40
2017-06-01T02:15:33.207Z,67.40
2017-06-01T02:18:01.571Z,67.30
2017-06-01T02:20:29.911Z,68.10
2017-06-01T02:22:58.272Z,67.70
2017-06-01T02:25:26.640Z,68.30
2017-06-01T02:27:55.049Z,68.10
2017-06-01T02:30:23.384Z,67.60
2017-06-01T02:32:51.749Z,67.70
2017-06-01T02:35:20.097Z,68.00
2017-06-01T02:37:48.461Z,67.90
2017-06-01T02:40:16.812Z,67.90
2017-06-01T02:42:45.157Z,68.10
2017-06-01T02:45:13.523Z,68.20
2017-06-01T02:47:41.872Z,68.30
2017-06-01T02:50:10.240Z,68.90
2017-06-01T02:52:38.591Z,68.80
2017-06-01T02:55:06.947Z,68.80
2017-06-01T02:57:35.291Z,68.60
2017-06-01T03:00:03.661Z,68.80
2017-06-01T03:02:32.008Z,68.80
2017-06-01T03:05:00.388Z,69.10
2017-06-01T03:07:28.744Z,69.10
2017-06-01T03:09:57.111Z,69.80
2017-06-01T03:12:25.469Z,69.60
2017-06-01T03:14:53.845Z,69.50
2017-06-01T03:17:22.947Z,69.70
2017-06-01T03:19:51.326Z,69.60
2017-06-01T03:22:19.756Z,70.00
2017-06-01T03:24:48.140Z,69.00
2017-06-01T03:27:16.512Z,69.70
2017-06-01T03:29:44.870Z,70.00
2017-06-01T03:32:13.873Z,70.10
2017-06-01T03:34:42.229Z,70.50
2017-06-01T03:37:10.601Z,70.60
2017-06-01T03:39:38.981Z,70.60
2017-06-01T03:42:07.345Z,71.20
2017-06-01T03:44:35.703Z,70.00
2017-06-01T03:47:04.076Z,70.30
2017-06-01T03:49:32.489Z,70.30
2017-06-01T03:52:00.877Z,70.50
2017-06-01T03:54:29.271Z,70.60
2017-06-01T03:56:58.314Z,69.90
2017-06-01T03:59:26.756Z,70.00
2017-06-01T04:01:55.193Z,70.00
2017-06-01T04:04:23.560Z,70.10
2017-06-01T04:06:51.930Z,70.00
2017-06-01T04:09:20.309Z,70.30
2017-06-01T04:11:48.681Z,70.50
2017-06-01T04:14:17.049Z,71.00
2017-06-01T04:16:45.408Z,70.40
2017-06-01T04:19:13.838Z,70.60
2017-06-01T04:21:42.187Z,70.40
2017-06-01T04:24:10.732Z,70.90
2017-06-01T04:26:39.103Z,70.30
2017-06-01T04:29:07.484Z,70.10
2017-06-01T04:31:35.892Z,70.00
2017-06-01T04:34:04.328Z,69.60
2017-06-01T04:36:32.756Z,70.50
2017-06-01T04:39:01.140Z,69.30
2017-06-01T04:41:29.540Z,68.80
2017-06-01T04:43:57.930Z,69.10
2017-06-01T04:46:26.510Z,68.90
2017-06-01T04:48:55.004Z,69.70
2017-06-01T04:51:23.368Z,69.00
2017-06-01T04:53:51.725Z,69.00
2017-06-01T04:56:20.101Z,68.50
2017-06-01T04:58:48.526Z,68.70
2017-06-01T05:01:16.893Z,67.40
2017-06-01T05:03:45.279Z,67.20
2017-06-01T05:06:13.672Z,68.20
2017-06-01T05:08:42.063Z,68.00
2017-06-01T05:11:11.411Z,65.90
2017-06-01T05:13:39.899Z,66.30
2017-06-01T05:16:08.308Z,64.60
2017-06-01T05:18:36.657Z,64.80
2017-06-01T05:21:06.245Z,63.70
2017-06-01T05:23:34.622Z,62.40
2017-06-01T05:26:03.111Z,61.80
2017-06-01T05:28:31.538Z,59.40
2017-06-01T05:30:59.892Z,58.80
2017-06-01T05:33:28.455Z,58.30
2017-06-01T05:35:56.812Z,57.20
2017-06-01T05:38:25.192Z,57.60
2017-06-01T05:40:53.536Z,57.60
2017-06-01T05:43:21.905Z,56.70
2017-06-01T05:45:50.784Z,55.30
2017-06-01T05:48:19.152Z,54.80
2017-06-01T05:50:47.496Z,54.50
2017-06-01T05:53:15.861Z,55.00
2017-06-01T05:55:44.220Z,54.00
2017-06-01T05:58:11.916Z,54.10
2017-06-01T06:00:39.500Z,52.00
2017-06-01T06:03:07.867Z,53.90
2017-06-01T06:05:36.272Z,50.70
2017-06-01T06:08:04.665Z,51.60
2017-06-01T06:10:33.036Z,52.00
2017-06-01T06:13:01.424Z,50.30
2017-06-01T06:15:29.802Z,50.30
2017-06-01T06:17:58.165Z,51.70
2017-06-01T06:20:26.544Z,49.20
2017-06-01T06:22:55.275Z,49.70
2017-06-01T06:25:23.661Z,50.30
2017-06-01T06:27:52.045Z,48.00
2017-06-01T06:30:20.450Z,48.80
2017-06-01T06:32:48.887Z,49.10
2017-06-01T06:35:17.287Z,47.30
2017-06-01T06:37:45.655Z,46.30
2017-06-01T06:40:14.057Z,48.00
2017-06-01T06:42:42.429Z,45.40
2017-06-01T06:45:10.800Z,46.80
2017-06-01T06:47:39.181Z,46.20
2017-06-01T06:50:07.708Z,46.40
2017-06-01T06:52:36.077Z,48.10
2017-06-01T06:55:04.445Z,45.90
2017-06-01T06:57:32.825Z,45.20
2017-06-01T07:00:01.199Z,47.60
2017-06-01T07:02:29.594Z,45.60
2017-06-01T07:04:57.958Z,45.20
2017-06-01T07:07:26.381Z,45.40
2017-06-01T07:09:54.745Z,45.30
2017-06-01T07:12:23.129Z,48.60
2017-06-01T07:14:51.512Z,45.20
2017-06-01T07:17:19.926Z,48.00
2017-06-01T07:19:48.301Z,46.80
2017-06-01T07:22:16.709Z,45.90
2017-06-01T07:24:45.165Z,46.40
2017-06-01T07:27:13.543Z,44.40
2017-06-01T07:29:41.919Z,43.70
2017-06-01T07:32:10.309Z,43.70
2017-06-01T07:34:38.685Z,44.40
2017-06-01T07:37:07.031Z,45.10
2017-06-01T07:39:35.401Z,48.70
2017-06-01T07:42:03.776Z,45.50
2017-06-01T07:44:32.156Z,44.60
2017-06-01T07:47:00.512Z,46.20
2017-06-01T07:49:28.898Z,47.10
2017-06-01T07:51:57.253Z,45.90
2017-06-01T07:54:25.636Z,45.70
2017-06-01T07:56:54.199Z,47.40
2017-06-01T07:59:23.577Z,49.00
2017-06-01T08:01:51.963Z,45.30
2017-06-01T08:04:20.389Z,44.80
2017-06-01T08:06:48.801Z,44.30
2017-06-01T08:09:17.182Z,46.90
2017-06-01T08:11:45.581Z,46.60
2017-06-01T08:14:13.946Z,46.90
2017-06-01T08:16:42.949Z,43.00
2017-06-01T08:19:11.296Z,43.20
2017-06-01T08:21:39.666Z,42.90
2017-06-01T08:24:08.057Z,43.10
2017-06-01T08:26:36.483Z,44.50
2017-06-01T08:29:04.837Z,43.00
2017-06-01T08:31:33.210Z,41.10
2017-06-01T08:34:01.675Z,44.10
2017-06-01T08:36:30.016Z,42.90
2017-06-01T08:38:58.459Z,42.20
2017-06-01T08:41:26.846Z,44.20
2017-06-01T08:43:55.227Z,43.60
2017-06-01T08:46:23.634Z,43.40
2017-06-01T08:48:52.015Z,44.80
2017-06-01T08:51:20.386Z,42.20
2017-06-01T08:53:48.749Z,40.40
2017-06-01T08:56:17.093Z,41.80
2017-06-01T08:58:45.476Z,41.60
2017-06-01T09:01:13.826Z,41.90
2017-06-01T09:03:42.267Z,44.40
2017-06-01T09:06:10.629Z,43.30
2017-06-01T09:08:38.236Z,43.30
2017-06-01T09:11:07.153Z,43.90
2017-06-01T09:13:35.545Z,44.20
2017-06-01T09:16:03.919Z,45.20
2017-06-01T09:18:32.302Z,42.70
2017-06-01T09:21:00.654Z,42.60
2017-06-01T09:23:29.055Z,45.30
2017-06-01T09:25:57.457Z,45.80
2017-06-01T09:28:25.805Z,42.50
2017-06-01T09:30:54.181Z,42.20
2017-06-01T09:33:22.545Z,42.20
2017-06-01T09:35:50.150Z,42.20
2017-06-01T09:38:17.896Z,42.30
2017-06-01T09:40:46.279Z,41.10
2017-06-01T09:43:14.730Z,42.60
2017-06-01T09:45:43.109Z,43.10
2017-06-01T09:48:10.693Z,43.00
2017-06-01T09:50:39.066Z,42.90
2017-06-01T09:53:07.472Z,43.30
2017-06-01T09:55:35.846Z,44.00
2017-06-01T10:01:08.324Z,42.10
2017-06-01T10:03:37.506Z,43.10
2017-06-01T10:06:05.883Z,45.40
2017-06-01T10:08:34.244Z,44.60
2017-06-01T10:11:03.827Z,43.90
2017-06-01T10:13:32.217Z,43.50
2017-06-01T10:16:00.684Z,43.80
2017-06-01T10:18:29.891Z,42.70
2017-06-01T10:21:00.287Z,43.90
2017-06-01T10:23:28.809Z,40.70
2017-06-01T10:25:57.220Z,42.10
2017-06-01T10:28:26.770Z,41.80
2017-06-01T10:30:55.244Z,42.60
2017-06-01T10:33:23.624Z,42.50
2017-06-01T10:35:52.007Z,42.90
2017-06-01T10:38:20.414Z,43.10
2017-06-01T10:40:48.781Z,43.20
2017-06-01T10:43:17.232Z,41.60
2017-06-01T10:45:45.606Z,44.70
2017-06-01T10:48:13.989Z,42.50
2017-06-01T10:50:43.215Z,42.20
2017-06-01T10:53:11.567Z,41.70
2017-06-01T10:55:39.949Z,41.20
2017-06-01T10:58:08.324Z,41.00
2017-06-01T11:00:35.985Z,40.50
2017-06-01T11:03:04.392Z,40.60
2017-06-01T11:05:32.826Z,40.00
2017-06-01T11:08:01.195Z,40.10
2017-06-01T11:10:29.563Z,40.20
2017-06-01T11:12:57.912Z,38.60
2017-06-01T11:15:26.283Z,39.70
2017-06-01T11:17:54.811Z,39.30
2017-06-01T11:20:23.189Z,39.80
2017-06-01T11:22:51.645Z,39.80
2017-06-01T11:25:20.045Z,39.30
2017-06-01T11:27:48.406Z,43.70
2017-06-01T11:30:16.755Z,39.10
2017-06-01T11:32:45.220Z,38.50
2017-06-01T11:35:13.564Z,39.60
2017-06-01T11:37:41.945Z,37.70
2017-06-01T11:40:10.300Z,38.60
2017-06-01T11:42:38.656Z,40.20
2017-06-01T11:45:07.072Z,40.00
2017-06-01T11:47:35.540Z,39.80
2017-06-01T11:50:03.965Z,39.90
2017-06-01T11:52:32.352Z,41.40
2017-06-01T11:55:00.696Z,40.60
2017-06-01T11:57:28.284Z,40.50
2017-06-01T11:59:56.620Z,40.10
2017-06-01T12:02:24.992Z,39.30
2017-06-01T12:04:53.336Z,39.50
2017-06-01T12:07:21.680Z,40.20
2017-06-01T12:09:50.028Z,39.50
2017-06-01T12:12:18.376Z,40.30
2017-06-01T12:14:46.731Z,38.90
2017-06-01T12:17:15.068Z,40.20
2017-06-01T12:19:43.436Z,39.90
2017-06-01T12:22:11.784Z,40.40
2017-06-01T12:24:40.358Z,39.90
2017-06-01T12:27:08.712Z,40.40
2017-06-01T12:29:37.091Z,39.70
2017-06-01T12:32:05.453Z,39.20
2017-06-01T12:34:33.829Z,43.10
2017-06-01T12:37:02.184Z,40.50
2017-06-01T12:39:30.549Z,39.70
2017-06-01T12:41:59.010Z,39.00
2017-06-01T12:44:27.527Z,40.90
2017-06-01T12:46:55.116Z,40.70
2017-06-01T12:49:22.726Z,40.20
2017-06-01T12:51:51.090Z,38.40
2017-06-01T12:54:19.504Z,40.40
2017-06-01T12:56:47.873Z,39.60
2017-06-01T12:59:16.241Z,39.90
2017-06-01T13:01:44.618Z,42.10
2017-06-01T13:04:12.981Z,38.90
2017-06-01T13:06:41.374Z,40.40
2017-06-01T13:09:09.742Z,38.70
2017-06-01T13:11:38.265Z,40.30
2017-06-01T13:14:06.624Z,38.80
2017-06-01T13:16:35.872Z,38.00
2017-06-01T13:19:04.245Z,38.70
2017-06-01T13:21:32.613Z,38.40
2017-06-01T13:24:01.005Z,37.50
2017-06-01T13:26:29.476Z,37.60
2017-06-01T13:28:57.832Z,38.20
2017-06-01T13:31:26.807Z,39.40
2017-06-01T13:33:54.400Z,39.30
2017-06-01T13:36:22.758Z,37.20
2017-06-01T13:38:51.141Z,37.90
2017-06-01T13:41:19.505Z,38.30
2017-06-01T13:43:47.875Z,37.50
2017-06-01T13:46:17.629Z,37.80
2017-06-01T13:48:46.153Z,37.60
2017-06-01T13:51:14.494Z,37.00
2017-06-01T13:53:42.858Z,37.80
2017-06-01T13:56:11.396Z,37.80
2017-06-01T13:58:39.767Z,37.60
2017-06-01T14:01:08.179Z,37.90
2017-06-01T14:03:35.864Z,37.80
2017-06-01T14:06:04.211Z,37.80
2017-06-01T14:08:32.596Z,38.10
2017-06-01T14:11:00.996Z,37.80
2017-06-01T14:13:29.437Z,38.00
2017-06-01T14:15:57.840Z,37.90
2017-06-01T14:18:26.208Z,37.30
2017-06-01T14:20:54.573Z,36.80
2017-06-01T14:23:22.944Z,37.60
2017-06-01T14:25:51.339Z,35.20
2017-06-01T14:28:19.717Z,36.70
2017-06-01T14:30:48.204Z,36.40
2017-06-01T14:33:16.601Z,37.10
2017-06-01T14:35:44.978Z,37.50
2017-06-01T14:38:13.355Z,37.70
2017-06-01T14:40:41.730Z,38.20
2017-06-01T14:43:10.089Z,37.90
2017-06-01T14:45:38.477Z,37.60
2017-06-01T14:48:06.833Z,38.30
2017-06-01T14:50:35.232Z,38.30
2017-06-01T14:53:03.593Z,37.80
2017-06-01T14:55:32.025Z,38.30
2017-06-01T14:58:00.388Z,38.30
2017-06-01T15:00:28.754Z,39.20
2017-06-01T15:02:57.123Z,38.40
2017-06-01T15:05:25.503Z,38.60
2017-06-01T15:07:54.244Z,37.20
2017-06-01T15:10:22.617Z,38.10
2017-06-01T15:12:50.998Z,39.60
2017-06-01T15:15:19.356Z,38.60
2017-06-01T15:17:47.738Z,38.30
2017-06-01T15:20:16.104Z,39.30
2017-06-01T15:22:44.456Z,38.70
2017-06-01T15:25:12.098Z,38.80
2017-06-01T15:27:40.515Z,38.60
2017-06-01T15:30:08.097Z,38.50
2017-06-01T15:32:36.458Z,39.30
2017-06-01T15:35:04.828Z,37.80
2017-06-01T15:37:33.235Z,37.60
2017-06-01T15:40:01.656Z,38.10
2017-06-01T15:42:30.052Z,37.90
2017-06-01T15:44:59.068Z,38.00
2017-06-01T15:47:27.440Z,38.00
2017-06-01T15:49:55.100Z,38.00
2017-06-01T15:52:23.622Z,37.90
2017-06-01T15:54:52.020Z,37.80
2017-06-01T15:57:20.399Z,37.80
2017-06-01T15:59:48.834Z,38.40
2017-06-01T16:02:17.193Z,37.50
2017-06-01T16:04:45.591Z,37.60
2017-06-01T16:07:13.979Z,38.20
2017-06-01T16:09:42.358Z,38.70
2017-06-01T16:12:10.739Z,38.30
2017-06-01T16:14:39.168Z,38.80
2017-06-01T16:17:07.587Z,38.40
2017-06-01T16:19:46.749Z,38.40
2017-06-01T16:22:25.072Z,37.20
2017-06-01T16:24:53.429Z,38.10
2017-06-01T16:27:21.824Z,38.00
2017-06-01T16:29:50.194Z,37.80
2017-06-01T16:32:18.563Z,38.30
2017-06-01T16:34:46.942Z,38.30
2017-06-01T16:37:15.324Z,38.10
2017-06-01T16:39:43.703Z,37.90
2017-06-01T16:42:12.118Z,37.20
2017-06-01T16:44:40.510Z,37.80
2017-06-01T16:47:08.918Z,37.70
2017-06-01T16:49:37.257Z,37.40
2017-06-01T16:52:05.624Z,37.90
2017-06-01T16:54:34.001Z,37.60
2017-06-01T16:57:02.356Z,37.80
2017-06-01T16:59:30.726Z,37.50
2017-06-01T17:01:59.074Z,37.70
2017-06-01T17:04:27.456Z,38.00
2017-06-01T17:06:55.822Z,37.90
2017-06-01T17:09:24.301Z,37.50
2017-06-01T17:11:52.692Z,37.40
2017-06-01T17:14:21.139Z,38.00
2017-06-01T17:16:49.534Z,37.50
2017-06-01T17:19:17.161Z,37.50
2017-06-01T17:21:45.607Z,37.20
2017-06-01T17:24:14.032Z,37.80
2017-06-01T17:26:42.379Z,38.00
2017-06-01T17:29:10.868Z,37.30
2017-06-01T17:31:39.329Z,37.40
2017-06-01T17:34:08.470Z,37.90
2017-06-01T17:36:36.865Z,37.80
2017-06-01T17:39:05.270Z,37.90
2017-06-01T17:41:33.635Z,37.40
2017-06-01T17:44:01.996Z,37.70
2017-06-01T17:46:29.608Z,37.60
2017-06-01T17:48:57.973Z,38.00
2017-06-01T17:51:26.346Z,38.00
2017-06-01T17:53:54.733Z,38.20
2017-06-01T17:56:23.093Z,37.70
2017-06-01T17:58:51.460Z,37.70
2017-06-01T18:01:20.583Z,38.10
2017-06-01T18:03:49.013Z,39.10
2017-06-01T18:06:17.453Z,39.50
2017-06-01T18:08:45.832Z,39.80
2017-06-01T18:11:14.180Z,39.60
2017-06-01T18:13:41.834Z,39.90
2017-06-01T18:16:10.244Z,40.20
2017-06-01T18:18:38.641Z,39.40
2017-06-01T18:21:07.006Z,39.70
2017-06-01T18:23:35.389Z,40.10
2017-06-01T18:26:03.776Z,41.40
2017-06-01T18:28:31.437Z,40.50
2017-06-01T18:30:59.801Z,40.80
2017-06-01T18:33:28.209Z,40.70
2017-06-01T18:35:56.578Z,41.00
2017-06-01T18:38:25.541Z,40.70
2017-06-01T18:40:53.940Z,41.10
2017-06-01T18:43:22.312Z,41.40
2017-06-01T18:45:53.677Z,41.30
2017-06-01T18:48:22.053Z,42.10
2017-06-01T18:50:50.419Z,41.20
2017-06-01T18:53:18.819Z,41.70
2017-06-01T18:55:47.193Z,42.10
2017-06-01T18:58:15.554Z,42.10
2017-06-01T19:00:43.189Z,42.10
2017-06-01T19:03:11.540Z,43.00
2017-06-01T19:05:39.954Z,43.10
2017-06-01T19:08:08.331Z,43.30
2017-06-01T19:10:36.689Z,43.80
2017-06-01T19:13:05.071Z,43.90
2017-06-01T19:15:33.462Z,44.20
2017-06-01T19:18:02.409Z,44.80
2017-06-01T19:20:30.807Z,44.40
2017-06-01T19:22:59.749Z,44.50
2017-06-01T19:25:28.171Z,45.90
2017-06-01T19:27:57.547Z,46.60
2017-06-01T19:30:26.692Z,46.70
2017-06-01T19:32:55.184Z,47.00
2017-06-01T19:35:22.954Z,46.40
2017-06-01T19:37:50.660Z,47.00
2017-06-01T19:40:18.273Z,46.40
2017-06-01T19:42:46.717Z,46.30
2017-06-01T19:45:15.084Z,46.10
2017-06-01T19:47:43.459Z,46.30
2017-06-01T19:50:12.123Z,46.50
2017-06-01T19:52:40.493Z,46.80
2017-06-01T19:55:08.881Z,46.80
2017-06-01T19:57:37.249Z,46.70
2017-06-01T20:00:05.650Z,47.00
2017-06-01T20:02:34.024Z,47.20
2017-06-01T20:05:02.390Z,48.00
2017-06-01T20:07:30.837Z,48.60
2017-06-01T20:09:59.207Z,48.80
2017-06-01T20:12:27.587Z,49.50
2017-06-01T20:14:55.943Z,49.90
2017-06-01T20:17:23.545Z,49.80
2017-06-01T20:19:51.915Z,49.80
2017-06-01T20:22:20.282Z,49.80
2017-06-01T20:24:48.651Z,50.30
2017-06-01T20:27:17.032Z,49.90
2017-06-01T20:29:45.396Z,49.90
2017-06-01T20:32:13.786Z,50.60
2017-06-01T20:34:42.184Z,51.20
2017-06-01T20:37:10.581Z,51.50
2017-06-01T20:39:38.969Z,51.70
2017-06-01T20:42:07.372Z,51.50
2017-06-01T20:44:35.734Z,52.10
2017-06-01T20:47:04.109Z,52.20
2017-06-01T20:49:31.724Z,52.10
2017-06-01T20:52:00.122Z,52.20
2017-06-01T20:54:28.510Z,51.80
2017-06-01T20:56:56.857Z,51.70
2017-06-01T20:59:25.229Z,52.20
2017-06-01T21:01:53.590Z,52.70
2017-06-01T21:04:21.960Z,52.60
2017-06-01T21:06:50.453Z,52.70
2017-06-01T21:09:18.858Z,53.30
2017-06-01T21:11:47.245Z,52.50
2017-06-01T21:14:15.656Z,52.20
2017-06-01T21:16:43.237Z,52.20
2017-06-01T21:19:11.620Z,52.20
2017-06-01T21:21:40.056Z,52.50
2017-06-01T21:24:09.430Z,52.80
2017-06-01T21:26:37.778Z,53.60
2017-06-01T21:29:06.138Z,53.60
2017-06-01T21:31:34.513Z,53.60
2017-06-01T21:34:03.022Z,53.30
2017-06-01T21:36:31.717Z,53.00
2017-06-01T21:39:00.192Z,53.20
2017-06-01T21:41:28.581Z,53.50
2017-06-01T21:43:56.943Z,53.30
2017-06-01T21:46:25.296Z,52.70
2017-06-01T21:48:54.533Z,52.50
2017-06-01T21:51:22.921Z,53.00
2017-06-01T21:53:51.295Z,53.40
2017-06-01T21:56:19.714Z,54.10
2017-06-01T21:58:47.292Z,53.30
2017-06-01T22:01:15.673Z,53.40
2017-06-01T22:03:45.331Z,53.80
2017-06-01T22:06:13.688Z,53.50
2017-06-01T22:08:42.113Z,53.50
2017-06-01T22:11:10.499Z,53.90
2017-06-01T22:13:38.861Z,54.10
2017-06-01T22:16:07.224Z,53.90
2017-06-01T22:18:35.615Z,54.00
2017-06-01T22:21:03.196Z,53.90
2017-06-01T22:23:31.573Z,54.50
2017-06-01T22:25:59.182Z,54.50
2017-06-01T22:28:27.676Z,54.60
2017-06-01T22:30:56.033Z,53.80
2017-06-01T22:33:24.404Z,54.00
2017-06-01T22:35:52.748Z,55.00
2017-06-01T22:38:21.128Z,55.00
2017-06-01T22:40:49.477Z,53.90
2017-06-01T22:43:17.868Z,53.50
2017-06-01T22:45:46.279Z,53.50
2017-06-01T22:48:14.632Z,53.70
2017-06-01T22:50:43.015Z,54.40
2017-06-01T22:53:11.372Z,55.00
2017-06-01T22:55:39.835Z,55.20
2017-06-01T22:58:08.294Z,55.30
2017-06-01T23:00:36.676Z,55.00
2017-06-01T23:03:05.061Z,55.30
2017-06-01T23:05:33.438Z,55.50
2017-06-01T23:08:01.799Z,55.20
2017-06-01T23:10:30.169Z,54.80
2017-06-01T23:12:58.520Z,54.50
2017-06-01T23:15:26.896Z,54.60
2017-06-01T23:17:54.490Z,54.60
2017-06-01T23:20:22.853Z,54.90
2017-06-01T23:22:51.321Z,55.00
2017-06-01T23:25:19.673Z,55.10
2017-06-01T23:27:48.053Z,55.20
2017-06-01T23:30:16.988Z,55.40
2017-06-01T23:32:45.358Z,55.90
2017-06-01T23:35:13.734Z,55.50
2017-06-01T23:37:42.112Z,54.80
2017-06-01T23:40:09.726Z,54.80
2017-06-01T23:42:38.129Z,55.20
2017-06-01T23:45:05.719Z,55.20
2017-06-01T23:47:34.100Z,55.90
2017-06-01T23:50:02.448Z,55.90
2017-06-01T23:52:31.672Z,55.40
2017-06-01T23:55:00.074Z,55.80
2017-06-01T23:57:28.439Z,55.80
2017-06-01T23:59:56.817Z,55.60
